Time;durP1;ratioP1;P1;durP2;ratioP2;P2;SDS_P1;SDS_P2;PMS_P1;PMS_P2;Temp;Humidity;BMP_temperature;BMP_pressure;BME280_temperature;BME280_humidity;BME280_pressure;Samples;Min_cycle;Max_cycle;Signal;HPM_P1;HPM_P2
2022/11/21 00:00:48;;;;;;;106.75;48.45;;;;;;;-2.71;74.59;98304.32;1748287;81;20995;-53
2022/11/21 00:03:14;;;;;;;115.88;49.85;;;;;;;-2.75;74.66;98303.97;1748122;82;21427;-43
2022/11/21 00:05:43;;;;;;;107.22;48.87;;;;;;;-2.74;74.38;98310.80;1748200;81;21525;-41
2022/11/21 00:08:12;;;;;;;109.27;47.95;;;;;;;-2.74;74.38;98309.95;1748163;81;20999;-49
2022/11/21 00:10:39;;;;;;;104.60;47.17;;;;;;;-2.75;74.34;98303.97;1748081;81;20991;-49
2022/11/21 00:13:06;;;;;;;103.70;46.55;;;;;;;-2.80;74.56;98305.77;1748015;82;21011;-48
2022/11/21 00:15:34;;;;;;;100.97;44.33;;;;;;;-2.82;74.79;98293.78;1748227;82;21493;-46
2022/11/21 00:18:02;;;;;;;99.67;44.63;;;;;;;-2.84;74.73;98297.67;1748070;81;21048;-46
2022/11/21 00:20:29;;;;;;;108.22;46.18;;;;;;;-2.87;74.61;98290.02;1748101;81;20972;-46
2022/11/21 00:22:55;;;;;;;107.97;46.05;;;;;;;-2.85;74.53;98292.13;1748403;81;20988;-48
2022/11/21 00:25:20;;;;;;;108.15;45.30;;;;;;;-2.93;74.83;98288.83;1748120;81;20968;-44
2022/11/21 00:27:46;;;;;;;102.67;47.10;;;;;;;-2.94;74.90;98288.44;1748142;82;20995;-42
2022/11/21 00:30:13;;;;;;;100.53;43.75;;;;;;;-2.91;74.87;98280.22;1748088;82;21345;-42
2022/11/21 00:32:39;;;;;;;99.27;44.70;;;;;;;-2.93;74.93;98284.55;1748255;81;21446;-47
2022/11/21 00:35:06;;;;;;;104.60;43.73;;;;;;;-2.91;75.20;98285.78;1748117;82;20980;-45
2022/11/21 00:37:33;;;;;;;103.38;43.87;;;;;;;-2.93;74.93;98283.68;1748190;82;20980;-53
2022/11/21 00:39:59;;;;;;;100.62;45.40;;;;;;;-2.96;75.32;98277.32;1748188;82;21035;-47
2022/11/21 00:42:25;;;;;;;89.25;41.48;;;;;;;-2.95;75.16;98280.29;1748108;81;20988;-45
2022/11/21 00:44:51;;;;;;;98.03;42.80;;;;;;;-2.98;75.40;98282.94;1748150;81;21492;-50
2022/11/21 00:47:17;;;;;;;92.47;41.60;;;;;;;-2.97;75.47;98270.47;1748932;80;20988;-50
2022/11/21 00:49:43;;;;;;;85.22;39.92;;;;;;;-2.93;75.29;98270.41;1761421;81;21022;-49
2022/11/21 00:52:08;;;;;;;88.30;37.20;;;;;;;-2.94;75.24;98270.42;1761415;81;21445;-44
2022/11/21 00:54:34;;;;;;;88.70;40.10;;;;;;;-3.01;75.46;98271.41;1761376;81;21034;-49
2022/11/21 00:57:00;;;;;;;89.28;41.37;;;;;;;-2.98;75.52;98272.64;1761525;81;20983;-51
2022/11/21 00:59:26;;;;;;;99.07;40.45;;;;;;;-3.01;75.64;98272.24;1761416;81;20979;-47
2022/11/21 01:01:52;;;;;;;91.75;40.10;;;;;;;-3.01;75.64;98272.24;1761335;81;20987;-46
2022/11/21 01:04:17;;;;;;;83.65;38.53;;;;;;;-3.01;75.74;98267.55;1761656;81;21027;-47
2022/11/21 01:06:43;;;;;;;90.32;40.90;;;;;;;-2.99;75.77;98260.64;1761378;81;20991;-42
2022/11/21 01:09:09;;;;;;;90.70;39.40;;;;;;;-2.99;75.65;98255.50;1761411;81;21406;-48
2022/11/21 01:11:34;;;;;;;91.75;40.35;;;;;;;-3.04;75.84;98256.85;1761513;81;20987;-49
2022/11/21 01:14:00;;;;;;;98.05;41.85;;;;;;;-3.05;75.90;98251.77;1761389;81;20987;-43
2022/11/21 01:16:28;;;;;;;96.53;41.00;;;;;;;-3.11;75.99;98254.84;1761313;81;20968;-44
2022/11/21 01:18:55;;;;;;;98.78;44.38;;;;;;;-3.07;75.86;98258.21;1761547;81;21496;-46
2022/11/21 01:21:28;;;;;;;96.80;42.90;;;;;;;-3.10;75.97;98259.55;1761493;81;21015;-49
2022/11/21 01:23:55;;;;;;;96.47;43.33;;;;;;;-3.10;76.09;98260.83;1761332;80;21035;-47
2022/11/21 01:26:24;;;;;;;95.32;43.68;;;;;;;-3.16;76.29;98255.35;1761575;81;21469;-44
2022/11/21 01:28:51;;;;;;;99.65;43.10;;;;;;;-3.18;76.25;98260.12;1761474;81;20999;-48
2022/11/21 01:31:28;;;;;;;92.57;41.00;;;;;;;-3.23;76.71;98252.91;1761542;81;20982;-44
2022/11/21 01:33:58;;;;;;;91.50;39.83;;;;;;;-3.21;76.90;98250.72;1761469;81;21406;-46
2022/11/21 01:36:31;;;;;;;96.82;42.03;;;;;;;-3.21;76.86;98257.15;1761360;81;20972;-42
2022/11/21 01:39:00;;;;;;;90.85;41.70;;;;;;;-3.20;76.80;98257.57;1761403;81;21027;-46
2022/11/21 01:41:33;;;;;;;91.55;40.78;;;;;;;-3.19;76.82;98260.54;1761500;81;20992;-49
2022/11/21 01:44:02;;;;;;;92.92;40.03;;;;;;;-3.22;76.83;98255.47;1760733;81;21051;-42
2022/11/21 01:46:29;;;;;;;92.53;41.05;;;;;;;-3.22;76.86;98251.61;1759456;81;21503;-51
2022/11/21 01:49:08;;;;;;;90.62;40.80;;;;;;;-3.21;76.80;98248.14;1761206;81;21018;-43
2022/11/21 01:51:59;;;;;;;89.10;40.73;;;;;;;-3.21;76.84;98248.14;1761400;81;20991;-46
2022/11/21 01:54:54;;;;;;;89.20;39.55;;;;;;;-3.21;76.95;98249.88;1761226;80;20987;-51
2022/11/21 01:57:31;;;;;;;87.05;37.15;;;;;;;-3.24;77.15;98254.61;1761344;81;21399;-47
2022/11/21 02:00:06;;;;;;;;;;;;;;;-3.28;77.56;98256.83;1763920;81;21432;-43
2022/11/21 02:02:36;;;;;;;89.72;38.50;;;;;;;-3.37;77.64;98262.97;1761343;81;20102;-42
2022/11/21 02:05:06;;;;;;;83.60;36.25;;;;;;;-3.33;77.62;98258.21;1761329;81;20928;-51
2022/11/21 02:07:35;;;;;;;85.55;38.48;;;;;;;-3.37;78.02;98260.84;1761372;81;20928;-54
2022/11/21 02:10:03;;;;;;;81.22;35.50;;;;;;;-3.35;78.15;98265.52;1761316;81;21027;-48
2022/11/21 02:12:33;;;;;;;85.85;36.33;;;;;;;-3.33;78.17;98259.91;1761312;81;20951;-42
2022/11/21 02:14:59;;;;;;;83.42;36.45;;;;;;;-3.32;78.20;98265.48;1761382;81;20979;-42
2022/11/21 02:17:28;;;;;;;83.05;37.05;;;;;;;-3.31;78.32;98264.59;1761535;80;21527;-49
2022/11/21 02:20:04;;;;;;;84.28;36.55;;;;;;;-3.30;77.80;98258.58;1761326;81;20955;-46
2022/11/21 02:22:50;;;;;;;80.32;34.48;;;;;;;-3.33;77.88;98255.64;1761127;81;20995;-47
2022/11/21 02:25:23;;;;;;;84.28;37.88;;;;;;;-3.32;78.16;98252.62;1761395;81;20967;-44
2022/11/21 02:27:54;;;;;;;79.70;36.33;;;;;;;-3.32;78.05;98256.48;1761451;81;21481;-44
2022/11/21 02:30:20;;;;;;;86.95;38.10;;;;;;;-3.31;78.04;98253.02;1761323;81;21033;-46
2022/11/21 02:32:46;;;;;;;84.42;36.35;;;;;;;-3.30;77.88;98254.28;1761392;81;21484;-50
2022/11/21 02:35:16;;;;;;;81.72;35.45;;;;;;;-3.30;78.12;98249.58;1761287;81;21488;-48
2022/11/21 02:37:53;;;;;;;74.32;34.75;;;;;;;-3.31;77.97;98251.73;1761267;81;20983;-42
2022/11/21 02:40:28;;;;;;;76.22;35.80;;;;;;;-3.32;77.88;98256.48;1760692;81;21421;-44
2022/11/21 02:43:09;;;;;;;76.42;33.98;;;;;;;-3.34;78.20;98258.23;1759906;81;20991;-45
2022/11/21 02:45:40;;;;;;;73.00;33.92;;;;;;;-3.30;78.01;98254.73;1760961;81;21595;-43
2022/11/21 02:48:06;;;;;;;77.53;33.40;;;;;;;-3.34;78.04;98257.78;1759875;80;21077;-43
2022/11/21 02:50:36;;;;;;;74.87;32.83;;;;;;;-3.30;78.01;98254.73;1753846;80;21014;-52
2022/11/21 02:53:04;;;;;;;76.22;34.48;;;;;;;-3.32;78.23;98264.19;1753587;82;21543;-46
2022/11/21 02:55:30;;;;;;;77.37;35.35;;;;;;;-3.31;78.12;98255.59;1724277;78;21046;-45
2022/11/21 02:57:56;;;;;;;73.07;33.58;;;;;;;-3.32;78.18;98247.48;1719366;82;21037;-47
2022/11/21 03:00:22;;;;;;;77.53;34.48;;;;;;;-3.34;78.11;98244.09;1701989;84;21006;-49
2022/11/21 03:02:48;;;;;;;68.47;32.48;;;;;;;-3.32;78.64;98234.63;1702003;84;21021;-53
2022/11/21 03:05:17;;;;;;;67.03;31.75;;;;;;;-3.30;78.06;98230.30;1701819;84;21035;-43
2022/11/21 03:07:44;;;;;;;67.90;31.15;;;;;;;-3.31;77.69;98236.30;1701826;84;21043;-47
2022/11/21 03:10:10;;;;;;;73.25;33.30;;;;;;;-3.36;78.11;98242.83;1701877;84;21007;-42
2022/11/21 03:12:39;;;;;;;76.35;33.08;;;;;;;-3.35;78.39;98232.94;1702116;84;21534;-44
2022/11/21 03:15:09;;;;;;;75.52;32.85;;;;;;;-3.33;78.55;98226.08;1701413;84;20998;-48
2022/11/21 03:17:36;;;;;;;67.95;31.27;;;;;;;-3.31;78.20;98229.88;1701775;84;21045;-50
2022/11/21 03:20:02;;;;;;;71.55;31.93;;;;;;;-3.32;78.30;98243.62;1701799;84;21002;-45
2022/11/21 03:22:28;;;;;;;67.80;31.02;;;;;;;-3.28;78.48;98246.55;1701934;84;21006;-47
2022/11/21 03:24:54;;;;;;;70.92;32.48;;;;;;;-3.29;78.45;98252.14;1701831;84;20998;-41
2022/11/21 03:27:20;;;;;;;76.35;32.78;;;;;;;-3.25;78.54;98245.22;1701883;84;20964;-40
2022/11/21 03:29:46;;;;;;;73.00;32.05;;;;;;;-3.22;78.41;98241.33;1702058;84;21495;-39
2022/11/21 03:32:11;;;;;;;66.80;31.65;;;;;;;-3.19;78.17;98241.25;1701878;84;21548;-40
2022/11/21 03:34:37;;;;;;;71.92;31.85;;;;;;;-3.18;78.26;98233.96;1701788;84;20987;-46
2022/11/21 03:37:03;;;;;;;69.82;32.08;;;;;;;-3.20;78.13;98226.72;1701783;84;21401;-44
2022/11/21 03:39:29;;;;;;;70.60;30.32;;;;;;;-3.23;78.26;98222.90;1701746;84;21042;-42
2022/11/21 03:41:56;;;;;;;69.92;30.77;;;;;;;-3.23;78.20;98225.47;1701787;84;21046;-41
2022/11/21 03:44:21;;;;;;;65.67;30.45;;;;;;;-3.21;78.40;98224.16;1701750;84;21039;-42
2022/11/21 03:46:48;;;;;;;68.52;31.45;;;;;;;-3.26;78.47;98213.95;1701935;84;21483;-41
2022/11/21 03:49:18;;;;;;;63.73;29.92;;;;;;;-3.26;78.59;98207.52;1701998;84;21514;-47
2022/11/21 03:51:43;;;;;;;71.62;30.70;;;;;;;-3.25;78.60;98202.80;1701073;84;21031;-42
2022/11/21 03:54:09;;;;;;;69.35;31.40;;;;;;;-3.22;78.70;98195.04;1702126;84;21539;-46
2022/11/21 03:56:36;;;;;;;65.57;30.75;;;;;;;-3.22;78.50;98198.90;1698888;83;21030;-42
2022/11/21 03:59:02;;;;;;;68.10;29.85;;;;;;;-3.23;78.57;98190.76;1698677;84;20967;-46
2022/11/21 04:01:28;;;;;;;64.47;29.90;;;;;;;-3.22;78.44;98188.61;1698963;84;20998;-46
2022/11/21 04:03:55;;;;;;;60.78;29.37;;;;;;;-3.21;78.39;98185.15;1698616;83;21483;-44
2022/11/21 04:06:21;;;;;;;61.92;29.98;;;;;;;-3.24;79.07;98177.48;1698694;84;20979;-41
2022/11/21 04:08:48;;;;;;;60.80;29.92;;;;;;;-3.23;78.76;98179.64;1698792;84;21038;-39
2022/11/21 04:11:14;;;;;;;57.93;28.57;;;;;;;-3.23;79.06;98178.34;1698572;84;20967;-44
2022/11/21 04:13:41;;;;;;;62.30;27.80;;;;;;;-3.22;79.49;98177.05;1698700;84;21559;-43
2022/11/21 04:16:07;;;;;;;58.40;27.90;;;;;;;-3.18;79.50;98170.96;1698619;84;20990;-38
2022/11/21 04:18:34;;;;;;;63.42;28.35;;;;;;;-3.15;79.13;98173.45;1698645;84;21034;-42
2022/11/21 04:21:04;;;;;;;53.90;28.42;;;;;;;-3.13;79.21;98168.29;1698714;84;20975;-48
2022/11/21 04:23:30;;;;;;;58.50;26.95;;;;;;;-3.11;79.41;98170.39;1698800;84;21011;-46
2022/11/21 04:25:56;;;;;;;59.40;28.10;;;;;;;-3.09;79.46;98178.51;1698689;84;21459;-48
2022/11/21 04:28:22;;;;;;;60.60;28.38;;;;;;;-3.08;79.17;98176.77;1698649;84;21038;-50
2022/11/21 04:30:48;;;;;;;54.67;26.85;;;;;;;-3.05;79.26;98170.30;1698595;84;21601;-47
2022/11/21 04:33:17;;;;;;;58.67;27.40;;;;;;;-3.03;79.22;98175.42;1698919;84;20995;-43
2022/11/21 04:35:43;;;;;;;58.85;27.48;;;;;;;-3.04;79.28;98173.27;1698463;84;21003;-40
2022/11/21 04:38:10;;;;;;;63.48;29.30;;;;;;;-3.02;79.50;98171.95;1698707;84;20975;-45
2022/11/21 04:40:37;;;;;;;62.10;28.60;;;;;;;-2.99;79.21;98175.31;1698729;84;21007;-43
2022/11/21 04:43:03;;;;;;;62.13;29.02;;;;;;;-2.95;79.12;98174.82;1698667;84;21010;-48
2022/11/21 04:45:29;;;;;;;67.05;27.85;;;;;;;-2.95;79.04;98156.81;1698638;83;21002;-46
2022/11/21 04:47:55;;;;;;;60.28;28.25;;;;;;;-2.98;79.17;98151.75;1683743;85;20976;-47
2022/11/21 04:50:21;;;;;;;62.90;28.23;;;;;;;-2.93;78.80;98142.20;1682967;85;21008;-46
2022/11/21 04:52:52;;;;;;;58.10;26.62;;;;;;;-2.97;79.47;98141.85;1691453;84;21002;-44
2022/11/21 04:55:19;;;;;;;58.35;29.32;;;;;;;-2.95;79.52;98135.82;1702220;83;21012;-48
2022/11/21 04:57:45;;;;;;;56.28;27.70;;;;;;;-2.88;79.27;98131.83;1713207;83;20978;-45
2022/11/21 05:00:13;;;;;;;61.23;27.80;;;;;;;-2.86;79.14;98132.19;1712272;83;21005;-45
2022/11/21 05:02:39;;;;;;;61.23;28.15;;;;;;;-2.83;78.91;98132.14;1712135;84;21060;-49
2022/11/21 05:05:06;;;;;;;59.70;28.25;;;;;;;-2.88;79.00;98128.81;1712214;83;20996;-49
2022/11/21 05:07:32;;;;;;;58.17;27.67;;;;;;;-2.86;78.75;98136.05;1712527;83;21037;-46
2022/11/21 05:09:58;;;;;;;59.40;28.38;;;;;;;-2.88;78.90;98132.67;1712215;84;21036;-41
2022/11/21 05:15:08;;;;;;;60.25;27.22;;;;;;;-2.91;78.90;98127.16;1712304;84;21448;-45
2022/11/21 05:17:34;;;;;;;57.62;27.93;;;;;;;-2.86;78.79;98123.19;1712469;84;21497;-42
2022/11/21 05:20:00;;;;;;;56.15;26.33;;;;;;;-2.87;79.04;98124.08;1712296;84;21001;-41
2022/11/21 05:22:26;;;;;;;58.92;25.77;;;;;;;-2.84;79.08;98122.71;1712173;84;21000;-46
2022/11/21 05:24:52;;;;;;;53.52;26.20;;;;;;;-2.80;79.06;98129.52;1712216;84;21036;-48
2022/11/21 05:27:17;;;;;;;56.05;26.02;;;;;;;-2.81;78.86;98123.11;1710297;82;21032;-47
2022/11/21 05:29:43;;;;;;;49.88;25.32;;;;;;;-2.78;78.98;98130.33;1712046;84;20997;-39
2022/11/21 05:32:09;;;;;;;52.10;25.02;;;;;;;-2.76;79.08;98115.70;1712085;84;20993;-42
2022/11/21 05:34:34;;;;;;;54.13;26.35;;;;;;;-2.72;78.96;98105.74;1712079;84;21004;-45
2022/11/21 05:37:00;;;;;;;47.67;23.62;;;;;;;-2.68;78.95;98091.09;1712043;84;21048;-44
2022/11/21 05:39:26;;;;;;;55.48;24.45;;;;;;;-2.64;78.84;98086.72;1712111;84;21005;-39
2022/11/21 05:41:52;;;;;;;55.28;26.80;;;;;;;-2.62;78.92;98090.98;1717755;83;21477;-46
2022/11/21 05:44:18;;;;;;;58.08;27.20;;;;;;;-2.54;78.71;98095.95;1712042;82;21506;-40
2022/11/21 05:46:44;;;;;;;64.72;28.90;;;;;;;-2.56;78.56;98097.72;1712152;84;21470;-47
2022/11/21 05:49:10;;;;;;;63.30;26.05;;;;;;;-2.53;78.28;98119.51;1712173;84;20993;-49
2022/11/21 05:51:37;;;;;;;53.02;24.77;;;;;;;-2.54;78.33;98117.38;1712111;84;20993;-45
2022/11/21 05:54:03;;;;;;;52.45;25.17;;;;;;;-2.51;78.31;98124.17;1712086;84;21000;-40
2022/11/21 05:56:29;;;;;;;52.53;24.90;;;;;;;-2.47;78.07;98124.55;1712042;83;21533;-50
2022/11/21 05:58:55;;;;;;;56.05;26.45;;;;;;;-2.53;77.86;98119.51;1712156;83;20969;-44
2022/11/21 06:04:07;;;;;;;58.42;26.10;;;;;;;-2.69;77.50;98124.16;1712072;84;21012;-45
2022/11/21 06:06:33;;;;;;;52.58;26.20;;;;;;;-2.70;77.62;98114.27;1712284;84;21032;-45
2022/11/21 06:08:59;;;;;;;58.35;25.35;;;;;;;-2.71;77.74;98110.02;1712104;83;21494;-50
2022/11/21 06:11:26;;;;;;;56.92;25.37;;;;;;;-2.75;78.03;98097.24;1712073;83;20996;-47
2022/11/21 06:13:52;;;;;;;46.85;24.00;;;;;;;-2.71;78.07;98087.28;1712040;82;20981;-39
2022/11/21 06:16:19;;;;;;;51.73;25.68;;;;;;;-2.72;78.40;98089.02;1712075;84;21008;-40
2022/11/21 06:18:47;;;;;;;56.83;25.70;;;;;;;-2.66;78.48;98088.48;1712307;84;20985;-52
2022/11/21 06:21:23;;;;;;;51.80;24.82;;;;;;;-2.63;78.66;98092.29;1712098;82;21000;-42
2022/11/21 06:23:55;;;;;;;51.33;23.77;;;;;;;-2.56;78.54;98089.55;1712029;84;21530;-51
2022/11/21 06:26:24;;;;;;;54.03;26.27;;;;;;;-2.49;78.35;98101.85;1712095;84;21505;-50
2022/11/21 06:28:50;;;;;;;56.53;24.95;;;;;;;-2.49;78.15;98100.98;1712195;84;20973;-45
2022/11/21 06:31:20;;;;;;;50.17;23.60;;;;;;;-2.42;78.14;98099.55;1712216;84;20996;-41
2022/11/21 06:33:48;;;;;;;58.95;24.90;;;;;;;-2.37;78.07;98109.28;1712073;84;20996;-46
2022/11/21 06:36:16;;;;;;;52.08;25.12;;;;;;;-2.31;77.84;98105.72;1712217;83;21000;-45
2022/11/21 06:38:44;;;;;;;54.90;26.73;;;;;;;-2.29;77.72;98106.98;1712144;84;21048;-44
2022/11/21 06:41:19;;;;;;;69.72;30.50;;;;;;;-2.28;77.60;98095.81;1712108;84;21036;-46
2022/11/21 06:43:46;;;;;;;67.70;30.17;;;;;;;-2.22;77.59;98100.39;1712128;84;21005;-53
2022/11/21 06:46:13;;;;;;;57.00;27.73;;;;;;;-2.22;77.68;98100.81;1712366;83;21044;-46
2022/11/21 06:48:40;;;;;;;65.85;28.80;;;;;;;-2.14;77.43;98102.78;1712299;82;20969;-46
2022/11/21 06:51:11;;;;;;;59.23;26.93;;;;;;;-2.05;77.34;98101.72;1712192;82;21036;-46
2022/11/21 06:53:37;;;;;;;56.13;26.40;;;;;;;-2.00;77.15;98100.73;1710996;83;21004;-42
2022/11/21 06:56:04;;;;;;;55.75;25.95;;;;;;;-1.92;76.98;98100.99;1712027;83;21036;-46
2022/11/21 06:58:30;;;;;;;57.75;24.90;;;;;;;-1.92;76.76;98103.56;1712183;84;21004;-44
2022/11/21 07:00:57;;;;;;;50.58;25.72;;;;;;;-1.84;76.59;98106.34;1712054;84;21439;-43
2022/11/21 07:03:22;;;;;;;60.23;27.48;;;;;;;-1.77;76.44;98110.46;1712025;84;21055;-43
2022/11/21 07:05:49;;;;;;;78.62;32.05;;;;;;;-1.67;76.37;98114.97;1712134;84;21680;-43
2022/11/21 07:08:15;;;;;;;75.50;33.23;;;;;;;-1.58;76.11;98126.33;1712397;84;21025;-43
2022/11/21 07:10:41;;;;;;;84.60;37.03;;;;;;;-1.60;75.97;98124.66;1712054;84;21499;-49
2022/11/21 07:13:22;;;;;;;63.78;29.00;;;;;;;-1.48;75.83;98124.36;1712083;84;21486;-43
2022/11/21 07:15:53;;;;;;;58.30;25.52;;;;;;;-1.39;75.91;98134.44;1712054;83;21376;-42
2022/11/21 07:18:21;;;;;;;56.95;26.02;;;;;;;-1.30;75.72;98130.78;1711965;84;20996;-52
2022/11/21 07:20:47;;;;;;;51.45;25.00;;;;;;;-1.27;75.55;98119.10;1712147;84;21556;-43
2022/11/21 07:23:14;;;;;;;57.58;25.45;;;;;;;-1.27;75.46;98118.27;1712283;83;21020;-47
2022/11/21 07:25:40;;;;;;;51.00;24.95;;;;;;;-1.23;75.44;98114.25;1712205;84;20992;-44
2022/11/21 07:28:07;;;;;;;65.35;26.48;;;;;;;-1.17;75.82;98113.24;1712250;84;21008;-48
2022/11/21 07:30:34;;;;;;;55.92;24.35;;;;;;;-1.06;75.48;98111.66;1712332;83;21474;-43
2022/11/21 07:33:04;;;;;;;54.67;25.27;;;;;;;-1.13;75.36;98109.69;1712414;84;20997;-51
2022/11/21 07:35:30;;;;;;;50.28;23.32;;;;;;;-0.93;75.22;98104.43;1712209;84;21509;-45
2022/11/21 07:37:56;;;;;;;51.92;23.62;;;;;;;-0.87;74.99;98102.98;1712238;84;21412;-45
2022/11/21 07:40:21;;;;;;;60.55;25.45;;;;;;;-0.81;74.75;98098.47;1712204;84;21033;-43
2022/11/21 07:42:47;;;;;;;60.50;26.62;;;;;;;-0.70;74.82;98093.46;1712182;84;21009;-50
2022/11/21 07:45:14;;;;;;;56.70;28.77;;;;;;;-0.64;74.80;98085.09;1712156;84;21012;-45
2022/11/21 07:47:41;;;;;;;52.65;26.33;;;;;;;-0.56;74.55;98084.86;1712280;84;21057;-45
2022/11/21 07:50:09;;;;;;;67.10;29.60;;;;;;;-0.54;74.39;98071.91;1712231;84;20977;-45
2022/11/21 07:52:35;;;;;;;56.70;28.23;;;;;;;-0.42;74.36;98070.23;1712201;84;21541;-50
2022/11/21 07:55:02;;;;;;;60.48;27.60;;;;;;;-0.45;74.25;98069.05;1712156;84;21173;-44
2022/11/21 07:57:29;;;;;;;49.93;24.15;;;;;;;-0.34;74.14;98070.02;1701625;83;21085;-40
2022/11/21 07:59:54;;;;;;;46.53;23.98;;;;;;;-0.29;73.96;98055.19;1698517;83;21561;-45
2022/11/21 08:02:23;;;;;;;49.48;22.93;;;;;;;-0.26;73.90;98043.48;1698619;83;21003;-49
2022/11/21 08:04:49;;;;;;;56.25;24.95;;;;;;;-0.25;73.75;98044.73;1698325;83;20998;-42
2022/11/21 08:07:16;;;;;;;52.73;25.40;;;;;;;-0.28;74.01;98037.52;1697024;84;21492;-48
2022/11/21 08:09:42;;;;;;;63.55;26.00;;;;;;;-0.24;74.46;98022.31;1696808;82;20984;-46
2022/11/21 08:12:08;;;;;;;53.00;25.48;;;;;;;-0.14;74.77;98025.47;1696907;84;20995;-42
2022/11/21 08:14:35;;;;;;;53.20;26.55;;;;;;;-0.10;74.65;98026.59;1696826;84;21495;-42
2022/11/21 08:17:00;;;;;;;54.27;26.52;;;;;;;-0.07;74.92;98023.92;1697161;84;21127;-46
2022/11/21 08:19:26;;;;;;;59.63;26.40;;;;;;;-0.01;75.00;98025.00;1696858;83;21003;-46
2022/11/21 08:21:53;;;;;;;54.45;26.52;;;;;;;0.03;74.79;98026.20;1696817;84;20968;-43
2022/11/21 08:24:19;;;;;;;55.17;26.00;;;;;;;0.02;74.68;98028.37;1696963;84;21071;-46
2022/11/21 08:26:45;;;;;;;53.55;26.50;;;;;;;0.13;74.98;98025.84;1696777;84;21587;-44
2022/11/21 08:29:12;;;;;;;63.95;26.07;;;;;;;0.18;74.87;98031.71;1696793;84;20999;-46
2022/11/21 08:31:39;;;;;;;91.53;29.65;;;;;;;0.32;75.19;98018.30;1696915;84;21038;-44
2022/11/21 08:34:05;;;;;;;56.13;26.80;;;;;;;0.46;74.90;98008.77;1696897;84;21030;-45
2022/11/21 08:36:30;;;;;;;58.28;28.30;;;;;;;0.54;75.35;98008.05;1696754;84;21607;-47
2022/11/21 08:38:56;;;;;;;58.60;27.40;;;;;;;0.83;74.83;98003.57;1696946;84;20991;-47
2022/11/21 08:44:07;;;;;;;61.48;28.75;;;;;;;1.24;74.05;98026.25;1696433;84;21062;-47
2022/11/21 08:46:36;;;;;;;62.65;30.65;;;;;;;1.45;73.83;98022.81;1697028;84;21076;-42
2022/11/21 08:49:04;;;;;;;66.00;31.40;;;;;;;1.48;72.83;98020.12;1736167;82;21018;-45
2022/11/21 08:51:30;;;;;;;69.65;32.65;;;;;;;1.61;73.01;98011.87;1741881;82;21015;-41
2022/11/21 08:53:56;;;;;;;63.28;29.60;;;;;;;1.60;72.78;98017.94;1742936;82;21019;-44
2022/11/21 08:56:22;;;;;;;58.33;28.02;;;;;;;1.65;72.95;98020.73;1742446;82;21136;-50
2022/11/21 08:58:50;;;;;;;52.43;27.50;;;;;;;1.44;72.26;98029.38;1740768;82;21048;-46
2022/11/21 09:01:16;;;;;;;56.88;28.60;;;;;;;1.43;72.98;98025.92;1740932;82;20983;-51
2022/11/21 09:03:45;;;;;;;59.95;29.95;;;;;;;1.59;72.84;98023.58;1729508;82;21003;-47
2022/11/21 09:06:12;;;;;;;52.25;26.57;;;;;;;1.62;72.68;98021.31;1694919;84;21003;-45
2022/11/21 09:08:37;;;;;;;60.87;29.23;;;;;;;1.56;72.42;98015.92;1695049;84;21548;-44
2022/11/21 09:11:07;;;;;;;58.68;29.75;;;;;;;1.63;72.52;98023.84;1694555;84;20996;-46
2022/11/21 09:13:33;;;;;;;54.53;27.70;;;;;;;1.69;72.47;98022.76;1694215;85;21093;-44
2022/11/21 09:18:44;;;;;;;65.80;32.48;;;;;;;1.45;72.03;98012.45;1694534;85;20980;-39
2022/11/21 09:21:16;;;;;;;62.78;30.80;;;;;;;1.62;72.64;98015.70;1694526;84;21047;-48
2022/11/21 09:23:43;;;;;;;61.23;30.43;;;;;;;1.57;72.13;98009.02;1694443;84;21015;-46
2022/11/21 09:26:09;;;;;;;68.15;32.55;;;;;;;1.34;72.22;98009.44;1695063;84;21006;-43
2022/11/21 09:28:35;;;;;;;60.55;31.07;;;;;;;1.50;72.76;98004.52;1694765;84;21532;-48
2022/11/21 09:31:05;;;;;;;60.17;31.50;;;;;;;1.47;72.96;97993.80;1694575;84;20979;-47
2022/11/21 09:33:31;;;;;;;62.65;30.55;;;;;;;1.65;72.89;98000.47;1694828;84;20968;-51
2022/11/21 09:36:00;;;;;;;60.10;30.90;;;;;;;1.68;72.52;97995.17;1694680;85;21054;-45
2022/11/21 09:38:28;;;;;;;64.37;29.15;;;;;;;1.61;72.54;97996.32;1694648;84;21003;-45
2022/11/21 09:41:50;;;;;;;60.12;30.82;;;;;;;1.54;72.63;97990.06;1694307;84;21039;-45
2022/11/21 09:43:57;;;;;;;56.28;28.90;;;;;;;1.64;72.83;97983.25;1687267;85;21524;-47
2022/11/21 09:46:27;;;;;;;59.42;29.95;;;;;;;1.48;73.18;97976.07;1694511;84;20995;-47
2022/11/21 09:48:59;;;;;;;62.53;30.50;;;;;;;1.42;73.56;97965.97;1694530;84;20996;-45
2022/11/21 09:51:28;;;;;;;61.58;29.70;;;;;;;1.49;73.73;97971.30;1694645;84;21050;-41
2022/11/21 09:54:08;;;;;;;66.55;32.67;;;;;;;1.52;73.73;97964.67;1694674;85;21011;-47
2022/11/21 09:56:38;;;;;;;60.98;31.62;;;;;;;1.52;73.89;97964.67;1681076;85;20996;-43
2022/11/21 09:59:18;;;;;;;66.42;31.35;;;;;;;1.52;74.09;97958.66;1683070;84;21959;-45
2022/11/21 10:01:44;;;;;;;58.00;29.98;;;;;;;1.54;74.28;97953.80;1670833;85;20999;-45
2022/11/21 10:04:10;;;;;;;56.55;28.47;;;;;;;1.42;74.66;97954.31;1683162;84;21012;-48
2022/11/21 10:07:05;;;;;;;78.78;33.50;;;;;;;1.45;75.01;97957.22;1682960;84;21016;-43
2022/11/21 10:10:04;;;;;;;67.53;31.07;;;;;;;1.46;75.00;97953.73;1683014;84;21524;-40
2022/11/21 10:13:14;;;;;;;64.00;29.75;;;;;;;1.35;75.78;97954.16;1683295;84;21007;-45
2022/11/21 10:15:54;;;;;;;59.25;29.72;;;;;;;1.40;75.76;97947.48;1682980;85;20964;-44
2022/11/21 10:18:40;;;;;;;58.02;29.63;;;;;;;1.40;76.05;97948.34;1682850;85;21497;-46
2022/11/21 10:21:14;;;;;;;61.13;31.45;;;;;;;1.23;76.82;97949.45;1680017;85;21019;-42
2022/11/21 10:24:14;;;;;;;66.90;33.10;;;;;;;1.40;76.76;97952.23;1684195;85;21686;-42
2022/11/21 10:26:58;;;;;;;67.40;31.35;;;;;;;1.36;76.95;97947.22;1682679;85;21655;-42
2022/11/21 10:29:53;;;;;;;65.83;32.95;;;;;;;1.41;76.92;97947.42;1687825;84;21019;-47
2022/11/21 10:32:39;;;;;;;70.22;34.95;;;;;;;1.45;77.28;97946.86;1688261;85;20972;-40
2022/11/21 10:35:19;;;;;;;69.22;35.45;;;;;;;1.54;77.29;97951.20;1659665;86;21545;-44
2022/11/21 10:37:53;;;;;;;65.60;33.53;;;;;;;1.64;77.32;97945.67;1659738;86;21480;-44
2022/11/21 10:40:42;;;;;;;66.45;34.38;;;;;;;1.74;77.11;97943.08;1659934;86;20983;-46
2022/11/21 10:46:08;;;;;;;65.50;32.00;;;;;;;1.90;76.81;97930.33;1684659;84;21111;-47
2022/11/21 10:48:34;;;;;;;71.50;35.28;;;;;;;1.92;76.77;97937.59;1681760;84;20972;-41
2022/11/21 10:51:11;;;;;;;71.50;37.03;;;;;;;1.87;76.97;97924.84;1676206;85;21007;-45
2022/11/21 10:56:25;;;;;;;76.20;36.48;;;;;;;2.10;76.66;97928.19;1682541;85;21123;-46
2022/11/21 10:58:55;;;;;;;70.40;35.35;;;;;;;2.26;76.55;97914.95;1708812;83;21018;-43
2022/11/21 11:01:33;;;;;;;70.80;36.35;;;;;;;2.25;76.56;97920.20;1713615;83;20994;-45
2022/11/21 11:04:17;;;;;;;80.25;38.83;;;;;;;2.26;76.65;97919.30;1712722;83;21029;-49
2022/11/21 11:06:46;;;;;;;69.95;37.23;;;;;;;2.44;76.39;97921.55;1703528;84;20975;-50
2022/11/21 11:09:32;;;;;;;70.78;36.33;;;;;;;2.49;76.15;97923.45;1702717;84;21054;-48
2022/11/21 11:15:21;;;;;;;75.42;36.42;;;;;;;2.46;76.68;97923.15;1685807;84;20975;-47
2022/11/21 11:17:56;;;;;;;76.72;38.58;;;;;;;2.59;76.60;97922.61;1706488;83;20958;-46
2022/11/21 11:20:43;;;;;;;77.37;36.90;;;;;;;2.73;76.45;97915.48;1703917;84;20978;-49
2022/11/21 11:23:26;;;;;;;76.53;38.78;;;;;;;2.78;76.15;97910.92;1706573;83;21567;-49
2022/11/21 11:25:58;;;;;;;72.67;37.88;;;;;;;2.85;76.01;97911.03;1705969;84;21021;-46
2022/11/21 11:28:28;;;;;;;79.70;39.48;;;;;;;2.93;75.82;97921.05;1703397;84;21650;-47
2022/11/21 11:30:55;;;;;;;74.50;38.00;;;;;;;2.99;75.74;97908.64;1707100;83;21009;-44
2022/11/21 11:33:39;;;;;;;78.42;42.05;;;;;;;3.03;75.84;97917.95;1702729;84;20967;-49
2022/11/21 11:36:37;;;;;;;88.40;43.17;;;;;;;3.06;75.95;97917.83;1703478;83;21002;-49
2022/11/21 11:39:11;;;;;;;83.95;43.58;;;;;;;3.12;75.90;97928.84;1703259;84;21006;-47
2022/11/21 11:47:44;;;;;;;79.95;39.90;;;;;;;3.10;76.37;97918.52;1674099;84;20967;-48
2022/11/21 11:50:20;;;;;;;81.90;42.03;;;;;;;3.18;76.24;97920.75;1706644;83;21496;-47
2022/11/21 11:52:57;;;;;;;86.63;45.95;;;;;;;3.25;75.97;97918.25;1703320;84;21030;-48
2022/11/21 11:55:52;;;;;;;87.33;46.50;;;;;;;3.30;75.96;97918.88;1705924;84;21496;-47